CGCMA CYQA-CYTZ
Flight info
| Callsign | CGCMA |
|---|---|
| Flight time | N/A |
| Altitude | 4500 |
| Route | CYTZ/08 |
| Aircraft | C208 |
Departure
| Time | N/A |
|---|---|
| Airport | Muskoka Airport (CYQA) |
Arrival
| Time | 2026-04-24 01:09 |
|---|---|
| Airport | Billy Bishop Toronto City Airport (CYTZ) |
| Time | Latitude | Longitude | Altitude | Speed | Heading |
|---|---|---|---|---|---|
| 2026-04-24 00:53 | 44.22253 | -79.55828 | 4526 ft | 170 kts | 174° |
| 2026-04-24 00:53 | 44.21080 | -79.55660 | 4522 ft | 168 kts | 175° |
| 2026-04-24 00:54 | 44.19930 | -79.55485 | 4523 ft | 169 kts | 174° |
| 2026-04-24 00:54 | 44.18747 | -79.55301 | 4517 ft | 168 kts | 174° |
| 2026-04-24 00:54 | 44.17604 | -79.55136 | 4517 ft | 167 kts | 174° |
| 2026-04-24 00:54 | 44.16441 | -79.54966 | 4524 ft | 169 kts | 174° |
| 2026-04-24 00:55 | 44.15267 | -79.54798 | 4519 ft | 169 kts | 174° |
| 2026-04-24 00:55 | 44.14107 | -79.54626 | 4517 ft | 167 kts | 174° |
| 2026-04-24 00:55 | 44.12951 | -79.54453 | 4514 ft | 167 kts | 175° |
| 2026-04-24 00:55 | 44.11797 | -79.54266 | 4513 ft | 167 kts | 174° |
| 2026-04-24 00:56 | 44.10640 | -79.54062 | 4510 ft | 168 kts | 174° |
| 2026-04-24 00:56 | 44.09875 | -79.53931 | 4511 ft | 167 kts | 174° |
| 2026-04-24 00:56 | 44.08716 | -79.53729 | 4516 ft | 168 kts | 175° |
| 2026-04-24 00:56 | 44.07545 | -79.53534 | 4521 ft | 171 kts | 174° |
| 2026-04-24 00:57 | 44.05970 | -79.53192 | 4515 ft | 170 kts | 170° |
| 2026-04-24 00:57 | 44.04857 | -79.52711 | 4513 ft | 169 kts | 161° |
| 2026-04-24 00:57 | 44.02983 | -79.51744 | 4357 ft | 175 kts | 161° |
| 2026-04-24 00:58 | 44.01845 | -79.51161 | 4235 ft | 178 kts | 160° |
| 2026-04-24 00:58 | 44.00676 | -79.50571 | 4122 ft | 180 kts | 160° |
| 2026-04-24 00:58 | 43.99516 | -79.49880 | 3987 ft | 183 kts | 147° |
| 2026-04-24 00:58 | 43.98455 | -79.48920 | 3867 ft | 181 kts | 148° |
| 2026-04-24 00:59 | 43.97382 | -79.48000 | 3736 ft | 180 kts | 148° |
| 2026-04-24 00:59 | 43.96322 | -79.47094 | 3609 ft | 178 kts | 148° |
| 2026-04-24 00:59 | 43.95269 | -79.46201 | 3487 ft | 177 kts | 148° |
| 2026-04-24 00:59 | 43.94221 | -79.45315 | 3370 ft | 177 kts | 148° |
| 2026-04-24 01:00 | 43.93158 | -79.44430 | 3231 ft | 177 kts | 148° |
| 2026-04-24 01:00 | 43.92107 | -79.43548 | 3103 ft | 176 kts | 148° |
| 2026-04-24 01:00 | 43.91061 | -79.42664 | 2976 ft | 176 kts | 148° |
| 2026-04-24 01:00 | 43.90016 | -79.41792 | 2853 ft | 176 kts | 148° |
| 2026-04-24 01:01 | 43.88963 | -79.40921 | 2725 ft | 176 kts | 148° |
| 2026-04-24 01:01 | 43.87905 | -79.40043 | 2598 ft | 177 kts | 148° |
| 2026-04-24 01:01 | 43.86855 | -79.39166 | 2527 ft | 174 kts | 148° |
| 2026-04-24 01:01 | 43.85827 | -79.38315 | 2524 ft | 170 kts | 148° |
| 2026-04-24 01:02 | 43.84820 | -79.37479 | 2520 ft | 168 kts | 148° |
| 2026-04-24 01:02 | 43.83818 | -79.36644 | 2518 ft | 167 kts | 148° |
| 2026-04-24 01:02 | 43.82823 | -79.35811 | 2514 ft | 168 kts | 148° |
| 2026-04-24 01:02 | 43.81823 | -79.34982 | 2513 ft | 167 kts | 148° |
| 2026-04-24 01:03 | 43.80840 | -79.34166 | 2510 ft | 167 kts | 148° |
| 2026-04-24 01:03 | 43.79836 | -79.33335 | 2511 ft | 166 kts | 148° |
| 2026-04-24 01:03 | 43.78858 | -79.32525 | 2511 ft | 166 kts | 148° |
| 2026-04-24 01:03 | 43.77852 | -79.31690 | 2509 ft | 166 kts | 148° |
| 2026-04-24 01:04 | 43.76878 | -79.30883 | 2512 ft | 165 kts | 148° |
| 2026-04-24 01:04 | 43.75888 | -79.30085 | 2513 ft | 165 kts | 154° |
| 2026-04-24 01:04 | 43.74748 | -79.29974 | 2512 ft | 168 kts | 189° |
| 2026-04-24 01:04 | 43.73599 | -79.30256 | 2515 ft | 168 kts | 189° |
| 2026-04-24 01:05 | 43.72438 | -79.30528 | 2431 ft | 171 kts | 190° |
| 2026-04-24 01:05 | 43.71255 | -79.30816 | 2311 ft | 168 kts | 189° |
| 2026-04-24 01:05 | 43.70190 | -79.31070 | 2153 ft | 144 kts | 189° |
| 2026-04-24 01:05 | 43.69242 | -79.31295 | 2003 ft | 134 kts | 189° |
| 2026-04-24 01:06 | 43.68329 | -79.31523 | 1760 ft | 131 kts | 192° |
| 2026-04-24 01:06 | 43.67468 | -79.31824 | 1464 ft | 128 kts | 197° |
| 2026-04-24 01:06 | 43.66624 | -79.32246 | 1137 ft | 126 kts | 202° |
| 2026-04-24 01:06 | 43.65889 | -79.32744 | 1085 ft | 110 kts | 211° |
| 2026-04-24 01:07 | 43.65284 | -79.33348 | 1013 ft | 105 kts | 219° |
| 2026-04-24 01:07 | 43.64807 | -79.34044 | 984 ft | 100 kts | 231° |
| 2026-04-24 01:07 | 43.64387 | -79.34802 | 964 ft | 100 kts | 233° |
| 2026-04-24 01:07 | 43.64013 | -79.35574 | 892 ft | 95 kts | 237° |
| 2026-04-24 01:08 | 43.63729 | -79.36356 | 776 ft | 84 kts | 252° |
| 2026-04-24 01:08 | 43.63564 | -79.37074 | 640 ft | 73 kts | 248° |
| 2026-04-24 01:08 | 43.63393 | -79.37709 | 499 ft | 71 kts | 246° |
| 2026-04-24 01:08 | 43.63225 | -79.38354 | 398 ft | 71 kts | 250° |
| 2026-04-24 01:09 | 43.63080 | -79.38974 | 285 ft | 64 kts | 246° |
| 2026-04-24 01:09 | 43.62951 | -79.39497 | 258 ft | 48 kts | 250° |
| 2026-04-24 01:09 | 43.62872 | -79.39822 | 255 ft | 26 kts | 253° |
| 2026-04-24 01:09 | 43.62886 | -79.40014 | 255 ft | 15 kts | 336° |
| 2026-04-24 01:10 | 43.62951 | -79.39905 | 255 ft | 21 kts | 72° |
| 2026-04-24 01:10 | 43.62990 | -79.39715 | 255 ft | 17 kts | 72° |
| 2026-04-24 01:10 | 43.63019 | -79.39590 | 256 ft | 11 kts | 74° |
| 2026-04-24 01:10 | 43.63048 | -79.39472 | 255 ft | 17 kts | 70° |
| 2026-04-24 01:11 | 43.63081 | -79.39331 | 256 ft | 14 kts | 68° |
| 2026-04-24 01:11 | 43.63163 | -79.39340 | 255 ft | 12 kts | 342° |
| 2026-04-24 01:11 | 43.63223 | -79.39384 | 255 ft | 9 kts | 320° |
| 2026-04-24 01:11 | 43.63260 | -79.39446 | 255 ft | 6 kts | 303° |
| 2026-04-24 01:12 | 43.63253 | -79.39458 | 255 ft | 3 kts | 55° |